createdAt,value
2023-04-05T00:01:15.891Z,1.70
2023-04-05T00:03:44.316Z,1.80
2023-04-05T00:06:16.664Z,1.80
2023-04-05T00:08:50.107Z,1.90
2023-04-05T00:11:18.888Z,1.80
2023-04-05T00:13:46.985Z,1.67
2023-04-05T00:16:15.144Z,1.83
2023-04-05T00:18:49.913Z,1.80
2023-04-05T00:21:21.853Z,1.90
2023-04-05T00:23:51.484Z,1.73
2023-04-05T00:26:20.005Z,1.97
2023-04-05T00:28:48.932Z,1.63
2023-04-05T00:31:17.414Z,1.70
2023-04-05T00:33:45.921Z,1.57
2023-04-05T00:36:15.310Z,1.83
2023-04-05T00:38:45.794Z,1.80
2023-04-05T00:41:14.716Z,2.20
2023-04-05T00:43:43.275Z,2.00
2023-04-05T00:46:11.655Z,2.13
2023-04-05T00:48:40.457Z,2.40
2023-04-05T00:51:11.513Z,2.50
2023-04-05T00:53:41.209Z,2.47
2023-04-05T00:56:13.521Z,1.90
2023-04-05T00:58:42.587Z,1.73
2023-04-05T01:01:18.119Z,1.80
2023-04-05T01:03:52.272Z,1.60
2023-04-05T01:06:30.218Z,1.63
2023-04-05T01:09:06.450Z,2.03
2023-04-05T01:11:39.164Z,1.70
2023-04-05T01:14:07.384Z,2.07
2023-04-05T01:16:35.630Z,2.13
2023-04-05T01:19:04.308Z,2.00
2023-04-05T01:22:17.239Z,1.77
2023-04-05T01:25:11.956Z,1.80
2023-04-05T01:28:07.508Z,2.10
2023-04-05T01:30:40.879Z,1.70
2023-04-05T01:33:16.971Z,1.90
2023-04-05T01:35:53.846Z,1.83
2023-04-05T01:38:26.014Z,1.77
2023-04-05T01:40:54.842Z,1.53
2023-04-05T01:43:23.025Z,1.80
2023-04-05T01:45:52.555Z,1.87
2023-04-05T01:48:20.698Z,1.97
2023-04-05T01:50:48.804Z,2.17
2023-04-05T01:53:17.370Z,1.70
2023-04-05T01:55:46.168Z,1.63
2023-04-05T01:58:14.337Z,2.07
2023-04-05T02:00:42.639Z,1.80
2023-04-05T02:03:12.620Z,2.07
2023-04-05T02:05:40.792Z,2.03
2023-04-05T02:08:08.987Z,1.97
2023-04-05T02:10:37.109Z,2.20
2023-04-05T02:13:05.319Z,2.00
2023-04-05T02:15:34.088Z,1.87
2023-04-05T02:18:02.860Z,2.03
2023-04-05T02:20:33.019Z,1.70
2023-04-05T02:23:02.208Z,1.80
2023-04-05T02:25:30.468Z,1.90
2023-04-05T02:27:58.634Z,2.10
2023-04-05T02:30:29.186Z,2.10
2023-04-05T02:32:57.463Z,2.00
2023-04-05T02:35:25.824Z,1.90
2023-04-05T02:37:56.744Z,1.60
2023-04-05T02:40:25.369Z,1.93
2023-04-05T02:42:53.543Z,2.00
2023-04-05T02:45:21.654Z,1.90
2023-04-05T02:47:49.889Z,1.60
2023-04-05T02:50:20.565Z,1.73
2023-04-05T02:52:48.976Z,1.80
2023-04-05T02:55:18.976Z,2.00
2023-04-05T02:57:47.356Z,2.00
2023-04-05T03:00:16.681Z,1.97
2023-04-05T03:02:44.833Z,1.90
2023-04-05T03:05:13.949Z,1.73
2023-04-05T03:07:42.782Z,2.50
2023-04-05T03:10:10.927Z,2.50
2023-04-05T03:12:40.619Z,2.30
2023-04-05T03:15:10.032Z,2.20
2023-04-05T03:17:38.181Z,2.27
2023-04-05T03:20:08.987Z,2.20
2023-04-05T03:22:37.366Z,2.13
2023-04-05T03:25:06.583Z,1.73
2023-04-05T03:27:34.818Z,1.87
2023-04-05T03:30:04.594Z,1.50
2023-04-05T03:32:32.814Z,1.60
2023-04-05T03:35:01.039Z,2.33
2023-04-05T03:37:29.171Z,1.60
2023-04-05T03:39:58.075Z,1.90
2023-04-05T03:42:26.370Z,1.70
2023-04-05T03:44:54.724Z,2.00
2023-04-05T03:47:24.243Z,2.00
2023-04-05T03:49:52.388Z,1.80
2023-04-05T03:52:20.558Z,1.50
2023-04-05T03:54:48.716Z,1.70
2023-04-05T03:57:16.843Z,1.90
2023-04-05T03:59:44.986Z,2.03
2023-04-05T04:02:13.360Z,2.00
2023-04-05T04:04:42.927Z,1.90
2023-04-05T04:07:11.106Z,2.40
2023-04-05T04:09:39.215Z,1.63
2023-04-05T04:12:07.680Z,2.00
2023-04-05T04:14:36.517Z,1.87
2023-04-05T04:17:04.635Z,1.60
2023-04-05T04:19:32.837Z,1.80
2023-04-05T04:22:02.610Z,1.67
2023-04-05T04:24:32.684Z,1.83
2023-04-05T04:27:00.813Z,2.10
2023-04-05T04:29:31.387Z,2.37
2023-04-05T04:32:01.133Z,1.80
2023-04-05T04:34:30.691Z,2.20
2023-04-05T04:37:01.765Z,2.10
2023-04-05T04:39:32.884Z,2.00
2023-04-05T04:42:01.470Z,1.70
2023-04-05T04:44:31.435Z,2.10
2023-04-05T04:46:59.873Z,1.90
2023-04-05T04:49:28.352Z,2.13
2023-04-05T04:51:58.568Z,2.00
2023-04-05T04:54:28.782Z,2.07
2023-04-05T04:56:58.260Z,2.97
2023-04-05T04:59:26.416Z,2.17
2023-04-05T05:01:54.579Z,2.37
2023-04-05T05:04:22.908Z,2.20
2023-04-05T05:06:52.757Z,2.67
2023-04-05T05:09:20.997Z,2.30
2023-04-05T05:11:49.112Z,2.30
2023-04-05T05:14:18.638Z,2.20
2023-04-05T05:16:46.977Z,1.60
2023-04-05T05:19:15.185Z,2.00
2023-04-05T05:21:43.256Z,2.20
2023-04-05T05:24:11.483Z,2.00
2023-04-05T05:26:39.635Z,2.13
2023-04-05T05:29:08.020Z,2.00
2023-04-05T05:31:37.598Z,2.07
2023-04-05T05:34:06.418Z,1.90
2023-04-05T05:36:34.669Z,2.20
2023-04-05T05:39:05.214Z,2.17
2023-04-05T05:41:33.335Z,2.43
2023-04-05T05:44:01.488Z,2.03
2023-04-05T05:46:29.616Z,2.20
2023-04-05T05:48:59.132Z,1.67
2023-04-05T05:51:27.423Z,2.13
2023-04-05T05:53:55.550Z,2.17
2023-04-05T05:56:23.659Z,2.10
2023-04-05T05:58:52.172Z,2.43
2023-04-05T06:01:22.967Z,2.60
2023-04-05T06:03:51.398Z,3.03
2023-04-05T06:06:21.220Z,3.03
2023-04-05T06:08:49.566Z,2.23
2023-04-05T06:11:21.635Z,2.20
2023-04-05T06:13:51.885Z,1.90
2023-04-05T06:16:20.189Z,2.17
2023-04-05T06:18:48.840Z,2.27
2023-04-05T06:21:17.710Z,2.10
2023-04-05T06:23:47.189Z,1.90
2023-04-05T06:26:20.502Z,27.20
2023-04-05T06:28:49.163Z,6.43
2023-04-05T06:31:17.999Z,2.57
2023-04-05T06:33:46.204Z,2.60
2023-04-05T06:36:14.361Z,2.33
2023-04-05T06:38:42.835Z,1.80
2023-04-05T06:41:12.360Z,2.47
2023-04-05T06:43:40.526Z,2.50
2023-04-05T06:46:11.621Z,2.60
2023-04-05T06:48:39.984Z,1.80
2023-04-05T06:51:08.165Z,2.10
2023-04-05T06:53:36.681Z,2.10
2023-04-05T06:56:04.959Z,2.40
2023-04-05T06:58:34.444Z,2.23
2023-04-05T07:01:02.827Z,2.30
2023-04-05T07:03:30.986Z,2.10
2023-04-05T07:06:00.491Z,2.17
2023-04-05T07:08:29.489Z,1.97
2023-04-05T07:10:57.616Z,2.60
2023-04-05T07:13:26.369Z,2.20
2023-04-05T07:16:01.702Z,1.70
2023-04-05T07:18:30.862Z,2.10
2023-04-05T07:21:02.084Z,2.20
2023-04-05T07:23:30.633Z,1.93
2023-04-05T07:26:04.536Z,2.43
2023-04-05T07:28:33.874Z,2.00
2023-04-05T07:31:03.929Z,2.03
2023-04-05T07:33:32.182Z,2.43
2023-04-05T07:36:00.589Z,2.10
2023-04-05T07:38:30.149Z,2.20
2023-04-05T07:40:58.806Z,2.17
2023-04-05T07:43:27.044Z,2.77
2023-04-05T07:46:04.584Z,2.30
2023-04-05T07:48:32.898Z,2.80
2023-04-05T07:51:05.682Z,2.40
2023-04-05T07:53:34.165Z,2.27
2023-04-05T07:56:06.047Z,2.57
2023-04-05T07:58:35.244Z,1.90
2023-04-05T08:01:05.951Z,1.97
2023-04-05T08:03:35.408Z,2.20
2023-04-05T08:06:11.896Z,2.10
2023-04-05T08:08:40.242Z,2.03
2023-04-05T08:11:08.402Z,2.37
2023-04-05T08:13:38.671Z,2.13
2023-04-05T08:16:09.016Z,1.60
2023-04-05T08:18:37.175Z,2.10
2023-04-05T08:21:05.938Z,1.80
2023-04-05T08:23:34.046Z,2.10
2023-04-05T08:26:02.399Z,2.00
2023-04-05T08:28:30.535Z,2.00
2023-04-05T08:30:58.797Z,2.30
2023-04-05T08:33:30.971Z,2.30
2023-04-05T08:35:59.187Z,2.60
2023-04-05T08:38:27.687Z,2.20
2023-04-05T08:40:55.856Z,2.30
2023-04-05T08:43:29.686Z,1.93
2023-04-05T08:46:01.160Z,2.23
2023-04-05T08:48:33.437Z,1.83
2023-04-05T08:51:01.556Z,2.03
2023-04-05T08:53:30.219Z,3.13
2023-04-05T08:56:01.181Z,2.60
2023-04-05T08:58:30.402Z,3.60
2023-04-05T09:00:59.749Z,4.53
2023-04-05T09:03:36.610Z,2.73
2023-04-05T09:06:08.645Z,2.40
2023-04-05T09:08:36.828Z,2.07
2023-04-05T09:11:05.236Z,2.27
2023-04-05T09:13:33.464Z,2.57
2023-04-05T09:16:02.735Z,2.50
2023-04-05T09:18:32.553Z,2.87
2023-04-05T09:21:05.694Z,2.40
2023-04-05T09:23:35.557Z,3.00
2023-04-05T09:26:18.749Z,2.50
2023-04-05T09:28:47.172Z,2.77
2023-04-05T09:31:34.004Z,2.80
2023-04-05T09:34:04.209Z,2.90
2023-04-05T09:36:34.287Z,2.73
2023-04-05T09:39:08.023Z,3.07
2023-04-05T09:41:37.269Z,3.13
2023-04-05T09:44:06.137Z,3.23
2023-04-05T09:46:37.970Z,3.07
2023-04-05T09:49:10.239Z,2.80
2023-04-05T09:51:40.467Z,3.40
2023-04-05T09:54:09.959Z,3.17
2023-04-05T09:56:41.592Z,3.13
2023-04-05T09:59:11.022Z,3.47
2023-04-05T10:01:41.614Z,3.47
2023-04-05T10:04:11.617Z,3.33
2023-04-05T10:06:41.203Z,3.60
2023-04-05T10:09:10.983Z,3.27
2023-04-05T10:11:40.123Z,3.47
2023-04-05T10:14:09.598Z,3.83
2023-04-05T10:16:44.239Z,4.07
2023-04-05T10:19:24.208Z,3.50
2023-04-05T10:21:54.545Z,3.63
2023-04-05T10:24:35.046Z,4.13
2023-04-05T10:27:07.450Z,4.00
2023-04-05T10:29:44.458Z,4.20
2023-04-05T10:32:19.979Z,4.13
2023-04-05T10:34:57.470Z,4.70
2023-04-05T10:37:37.167Z,4.37
2023-04-05T10:40:09.459Z,5.37
2023-04-05T10:42:43.966Z,4.20
2023-04-05T10:45:15.717Z,4.20
2023-04-05T10:47:49.331Z,3.97
2023-04-05T10:50:24.214Z,4.70
2023-04-05T10:52:53.747Z,3.20
2023-04-05T10:55:22.567Z,3.73
2023-04-05T10:57:51.308Z,3.40
2023-04-05T11:00:20.542Z,3.80
2023-04-05T11:02:54.842Z,4.07
2023-04-05T11:05:37.909Z,3.90
2023-04-05T11:08:08.102Z,4.17
2023-04-05T11:10:38.596Z,4.17
2023-04-05T11:13:11.938Z,4.30
2023-04-05T11:15:40.205Z,5.13
2023-04-05T11:18:12.910Z,4.33
2023-04-05T11:20:52.781Z,4.00
2023-04-05T11:23:23.754Z,4.60
2023-04-05T11:25:54.282Z,4.17
2023-04-05T11:28:27.239Z,4.50
2023-04-05T11:30:58.762Z,4.20
2023-04-05T11:33:57.702Z,4.50
2023-04-05T11:36:42.002Z,4.30
2023-04-05T11:39:26.441Z,4.60
2023-04-05T11:42:02.204Z,4.97
2023-04-05T11:44:34.338Z,4.90
2023-04-05T11:47:05.772Z,4.33
2023-04-05T11:49:35.437Z,4.63
2023-04-05T11:52:13.992Z,5.00
2023-04-05T11:54:46.252Z,4.87
2023-04-05T11:57:17.435Z,4.50
2023-04-05T11:59:45.823Z,4.40
2023-04-05T12:02:14.376Z,4.67
2023-04-05T12:04:42.506Z,5.10
2023-04-05T12:07:14.181Z,5.07
2023-04-05T12:10:05.896Z,5.00
2023-04-05T12:12:41.317Z,5.10
2023-04-05T12:15:11.926Z,4.90
2023-04-05T12:17:47.865Z,5.47
2023-04-05T12:20:22.206Z,7.57
2023-04-05T12:22:53.837Z,5.60
2023-04-05T12:25:22.506Z,6.60
2023-04-05T12:27:50.664Z,6.93
2023-04-05T12:30:20.585Z,5.80
2023-04-05T12:32:51.861Z,5.10
2023-04-05T12:35:21.724Z,4.53
2023-04-05T12:37:53.145Z,4.50
2023-04-05T12:40:23.401Z,4.03
2023-04-05T12:42:52.140Z,4.90
2023-04-05T12:45:24.377Z,4.37
2023-04-05T12:47:54.765Z,3.80
2023-04-05T12:50:28.964Z,4.57
2023-04-05T12:53:00.037Z,6.67
2023-04-05T12:55:29.084Z,8.27
2023-04-05T12:57:59.575Z,9.80
2023-04-05T13:00:29.405Z,7.00
2023-04-05T13:02:59.903Z,10.47
2023-04-05T13:05:29.851Z,8.40
2023-04-05T13:07:59.936Z,7.83
2023-04-05T13:10:28.065Z,12.13
2023-04-05T13:12:56.223Z,16.47
2023-04-05T13:15:24.313Z,5.90
2023-04-05T13:17:55.204Z,8.20
2023-04-05T13:20:23.509Z,9.07
2023-04-05T13:22:51.980Z,5.13
2023-04-05T13:25:21.471Z,7.20
2023-04-05T13:27:49.619Z,7.87
2023-04-05T13:30:18.246Z,11.57
2023-04-05T13:32:46.543Z,6.80
2023-04-05T13:35:14.811Z,8.23
2023-04-05T13:37:42.969Z,7.97
2023-04-05T13:40:11.727Z,6.57
2023-04-05T13:42:41.204Z,6.23
2023-04-05T13:45:10.127Z,12.70
2023-04-05T13:47:38.243Z,6.50
2023-04-05T13:50:07.683Z,5.37
2023-04-05T13:52:36.047Z,6.50
2023-04-05T13:55:04.492Z,4.53
2023-04-05T13:57:33.042Z,4.67
2023-04-05T14:00:02.760Z,4.53
2023-04-05T14:02:31.039Z,4.83
2023-04-05T14:04:59.254Z,4.43
2023-04-05T14:07:27.419Z,4.73
2023-04-05T14:09:55.737Z,4.57
2023-04-05T14:12:24.689Z,5.13
2023-04-05T14:14:52.884Z,5.13
2023-04-05T14:17:22.510Z,7.93
2023-04-05T14:19:50.785Z,5.50
2023-04-05T14:22:19.024Z,5.40
2023-04-05T14:24:47.231Z,5.03
2023-04-05T14:27:15.594Z,8.03
2023-04-05T14:29:45.826Z,5.27
2023-04-05T14:32:14.194Z,4.93
2023-04-05T14:34:43.779Z,11.23
2023-04-05T14:37:12.354Z,6.20
2023-04-05T14:39:40.563Z,8.10
2023-04-05T14:42:08.790Z,5.73
2023-04-05T14:44:36.983Z,5.20
2023-04-05T14:47:05.761Z,12.30
2023-04-05T14:49:33.910Z,5.87
2023-04-05T14:52:03.594Z,4.43
2023-04-05T14:54:31.769Z,9.93
2023-04-05T14:56:59.951Z,5.80
2023-04-05T14:59:28.298Z,4.80
2023-04-05T15:01:56.651Z,4.87
2023-04-05T15:04:24.911Z,4.53
2023-04-05T15:06:53.025Z,4.37
2023-04-05T15:09:22.637Z,5.17
2023-04-05T15:11:50.844Z,4.47
2023-04-05T15:14:29.035Z,8.07
2023-04-05T15:16:59.879Z,6.03
2023-04-05T15:19:28.293Z,7.20
2023-04-05T15:21:56.893Z,4.70
2023-04-05T15:24:26.507Z,4.43
2023-04-05T15:26:58.526Z,5.47
2023-04-05T15:29:26.691Z,5.83
2023-04-05T15:31:54.950Z,9.13
2023-04-05T15:34:23.175Z,5.23
2023-04-05T15:36:52.116Z,6.67
2023-04-05T15:39:20.406Z,5.10
2023-04-05T15:41:50.032Z,9.13
2023-04-05T15:44:18.463Z,10.97
2023-04-05T15:46:46.802Z,5.00
2023-04-05T15:49:17.431Z,4.83
2023-04-05T15:51:46.091Z,6.87
2023-04-05T15:54:18.603Z,6.43
2023-04-05T15:56:47.036Z,5.53
2023-04-05T15:59:16.570Z,7.00
2023-04-05T16:01:44.736Z,6.83
2023-04-05T16:04:13.110Z,4.83
2023-04-05T16:06:41.394Z,4.70
2023-04-05T16:09:10.054Z,3.90
2023-04-05T16:11:38.326Z,3.90
2023-04-05T16:14:06.590Z,4.33
2023-04-05T16:16:45.890Z,4.87
2023-04-05T16:19:21.212Z,4.27
2023-04-05T16:21:49.654Z,4.63
2023-04-05T16:24:18.076Z,3.90
2023-04-05T16:26:46.365Z,16.03
2023-04-05T16:29:14.662Z,4.57
2023-04-05T16:31:47.436Z,4.07
2023-04-05T16:34:16.112Z,4.30
2023-04-05T16:36:44.401Z,3.17
2023-04-05T16:39:12.654Z,5.37
2023-04-05T16:41:40.936Z,4.33
2023-04-05T16:44:09.339Z,3.50
2023-04-05T16:49:07.145Z,4.50
2023-04-05T16:51:36.896Z,4.80
2023-04-05T16:54:05.428Z,3.97
2023-04-05T16:56:33.771Z,3.80
2023-04-05T16:59:03.707Z,4.33
2023-04-05T17:01:33.326Z,4.20
2023-04-05T17:04:01.508Z,4.27
2023-04-05T17:06:31.829Z,12.93
2023-04-05T17:09:00.050Z,5.90
2023-04-05T17:11:29.310Z,4.87
2023-04-05T17:13:59.310Z,3.93
2023-04-05T17:16:27.666Z,4.60
2023-04-05T17:18:56.425Z,4.57
2023-04-05T17:21:25.891Z,4.73
2023-04-05T17:23:55.454Z,3.83
2023-04-05T17:26:24.575Z,4.07
2023-04-05T17:28:52.741Z,4.00
2023-04-05T17:31:21.070Z,4.10
2023-04-05T17:33:49.545Z,3.80
2023-04-05T17:36:17.934Z,4.80
2023-04-05T17:38:46.150Z,4.97
2023-04-05T17:41:16.143Z,4.40
2023-04-05T17:43:44.396Z,4.57
2023-04-05T17:46:14.838Z,3.87
2023-04-05T17:48:43.322Z,4.27
2023-04-05T17:51:11.557Z,3.90
2023-04-05T17:53:39.825Z,4.10
2023-04-05T17:56:08.223Z,4.50
2023-04-05T17:58:37.834Z,3.80
2023-04-05T18:01:06.095Z,3.70
2023-04-05T18:03:34.388Z,3.97
2023-04-05T18:06:02.746Z,4.33
2023-04-05T18:08:30.981Z,4.43
2023-04-05T18:10:59.775Z,4.53
2023-04-05T18:13:29.044Z,3.63
2023-04-05T18:16:00.181Z,4.33
2023-04-05T18:18:28.719Z,4.30
2023-04-05T18:21:01.809Z,4.40
2023-04-05T18:23:30.016Z,3.80
2023-04-05T18:25:58.831Z,3.90
2023-04-05T18:28:27.066Z,4.03
2023-04-05T18:30:55.493Z,4.17
2023-04-05T18:33:25.035Z,3.60
2023-04-05T18:35:53.505Z,3.70
2023-04-05T18:38:21.972Z,4.00
2023-04-05T18:40:50.353Z,3.70
2023-04-05T18:43:18.797Z,3.67
2023-04-05T18:45:47.153Z,4.30
2023-04-05T18:48:15.517Z,3.53
2023-04-05T18:50:45.074Z,4.30
2023-04-05T18:53:13.465Z,3.60
2023-04-05T18:55:41.635Z,3.53
2023-04-05T18:58:09.789Z,3.80
2023-04-05T19:00:38.001Z,3.80
2023-04-05T19:03:06.273Z,3.57
2023-04-05T19:05:34.569Z,3.90
2023-04-05T19:08:04.215Z,3.97
2023-04-05T19:10:32.393Z,3.83
2023-04-05T19:13:00.673Z,3.43
2023-04-05T19:15:28.853Z,3.27
2023-04-05T19:17:58.210Z,3.87
2023-04-05T19:20:26.498Z,3.80
2023-04-05T19:22:54.689Z,4.30
2023-04-05T19:25:24.268Z,3.40
2023-04-05T19:27:52.505Z,4.03
2023-04-05T19:30:20.768Z,4.47
2023-04-05T19:32:48.956Z,5.20
2023-04-05T19:35:17.297Z,11.73
2023-04-05T19:37:45.468Z,10.80
2023-04-05T19:40:13.791Z,7.70
2023-04-05T19:42:47.508Z,8.10
2023-04-05T19:45:18.245Z,6.73
2023-04-05T19:47:48.908Z,4.17
2023-04-05T19:50:48.385Z,3.80
2023-04-05T19:53:40.557Z,3.40
2023-04-05T19:56:15.146Z,3.50
2023-04-05T19:58:44.942Z,4.13
2023-04-05T20:01:18.778Z,4.70
2023-04-05T20:03:47.387Z,3.90
2023-04-05T20:06:17.061Z,3.57
2023-04-05T20:08:46.800Z,4.17
2023-04-05T20:11:16.604Z,9.20
2023-04-05T20:13:49.239Z,8.00
2023-04-05T20:16:18.941Z,5.50
2023-04-05T20:18:48.151Z,5.27
2023-04-05T20:21:17.024Z,6.17
2023-04-05T20:23:45.543Z,6.10
2023-04-05T20:26:15.420Z,5.93
2023-04-05T20:28:53.373Z,7.30
2023-04-05T20:31:23.616Z,7.80
2023-04-05T20:33:54.900Z,7.33
2023-04-05T20:36:24.520Z,4.90
2023-04-05T20:38:53.488Z,4.60
2023-04-05T20:41:21.854Z,5.00
2023-04-05T20:43:51.490Z,4.50
2023-04-05T20:46:19.749Z,5.40
2023-04-05T20:48:48.044Z,5.73
2023-04-05T20:51:16.855Z,5.63
2023-04-05T20:53:45.088Z,5.33
2023-04-05T20:56:13.538Z,4.50
2023-04-05T20:58:42.193Z,5.07
2023-04-05T21:01:12.171Z,4.90
2023-04-05T21:03:42.052Z,6.03
2023-04-05T21:06:11.305Z,6.17
2023-04-05T21:08:41.440Z,5.87
2023-04-05T21:11:11.744Z,5.23
2023-04-05T21:13:41.433Z,4.73
2023-04-05T21:16:11.166Z,4.77
2023-04-05T21:18:39.466Z,4.80
2023-04-05T21:21:07.642Z,4.57
2023-04-05T21:23:35.893Z,4.47
2023-04-05T21:26:04.597Z,4.20
2023-04-05T21:28:32.892Z,4.60
2023-04-05T21:31:01.606Z,4.70
2023-04-05T21:33:31.253Z,4.50
2023-04-05T21:35:59.644Z,4.40
2023-04-05T21:38:27.953Z,4.60
2023-04-05T21:40:56.488Z,4.77
2023-04-05T21:43:24.757Z,4.73
2023-04-05T21:45:53.195Z,5.90
2023-04-05T21:48:21.551Z,5.73
2023-04-05T21:50:51.222Z,5.40
2023-04-05T21:53:19.457Z,4.83
2023-04-05T21:55:47.656Z,3.93
2023-04-05T21:58:15.874Z,4.13
2023-04-05T22:00:44.112Z,4.13
2023-04-05T22:03:12.376Z,5.00
2023-04-05T22:05:41.092Z,4.83
2023-04-05T22:08:11.060Z,5.00
2023-04-05T22:10:39.801Z,4.93
2023-04-05T22:13:08.013Z,5.07
2023-04-05T22:15:36.189Z,3.70
2023-04-05T22:18:05.631Z,5.17
2023-04-05T22:20:34.110Z,5.13
2023-04-05T22:23:02.379Z,3.87
2023-04-05T22:25:31.964Z,4.13
2023-04-05T22:28:00.779Z,3.47
2023-04-05T22:30:40.969Z,3.90
2023-04-05T22:33:12.709Z,3.80
2023-04-05T22:35:41.426Z,3.53
2023-04-05T22:38:10.113Z,3.60
2023-04-05T22:40:39.823Z,3.50
2023-04-05T22:43:08.044Z,3.53
2023-04-05T22:45:36.288Z,3.40
2023-04-05T22:48:04.989Z,3.17
2023-04-05T22:50:33.264Z,3.20
2023-04-05T22:53:01.507Z,3.63
2023-04-05T22:55:30.155Z,3.40
2023-04-05T22:57:59.787Z,3.53
2023-04-05T23:00:27.951Z,3.17
2023-04-05T23:02:56.249Z,3.73
2023-04-05T23:05:24.813Z,3.17
2023-04-05T23:07:53.339Z,3.63
2023-04-05T23:10:21.803Z,3.10
2023-04-05T23:12:49.963Z,3.27
2023-04-05T23:15:19.683Z,3.60
2023-04-05T23:17:49.263Z,2.73
2023-04-05T23:20:17.570Z,2.80
2023-04-05T23:22:45.794Z,2.80
2023-04-05T23:25:16.756Z,3.37
2023-04-05T23:27:44.931Z,2.47
2023-04-05T23:30:14.010Z,2.77
2023-04-05T23:32:44.801Z,2.57
2023-04-05T23:35:13.202Z,3.00
2023-04-05T23:37:41.471Z,2.73
2023-04-05T23:40:10.887Z,2.47
2023-04-05T23:42:39.095Z,2.27
2023-04-05T23:45:10.335Z,2.30
2023-04-05T23:47:38.976Z,2.50
2023-04-05T23:50:10.768Z,2.40
2023-04-05T23:52:38.930Z,2.50
2023-04-05T23:55:07.759Z,2.30
2023-04-05T23:57:36.223Z,1.90
